createdAt,value
2019-02-19T00:29:38.861Z,1009.43
2019-02-19T00:30:20.062Z,1009.44
2019-02-19T00:31:01.482Z,1009.46
2019-02-19T00:31:42.873Z,1009.4
2019-02-19T00:32:24.162Z,1009.37
2019-02-19T00:33:05.608Z,1009.37
2019-02-19T00:33:46.858Z,1009.44
2019-02-19T00:34:28.327Z,1009.41
2019-02-19T00:35:09.616Z,1009.41
2019-02-19T00:35:51.109Z,1009.39
2019-02-19T00:36:33.103Z,1009.4
2019-02-19T00:37:15.412Z,1009.41
2019-02-19T00:37:57.513Z,1009.43
2019-02-19T00:38:38.958Z,1009.42
2019-02-19T00:39:20.942Z,1009.42
2019-02-19T00:40:02.286Z,1009.44
2019-02-19T00:40:45.203Z,1009.44
2019-02-19T00:41:26.455Z,1009.41
2019-02-19T00:42:07.958Z,1009.36
2019-02-19T00:42:49.902Z,1009.39
2019-02-19T00:43:31.326Z,1009.4
2019-02-19T00:44:12.629Z,1009.37
2019-02-19T00:44:54.097Z,1009.37
2019-02-19T00:45:35.415Z,1009.38
2019-02-19T00:46:16.789Z,1009.38
2019-02-19T00:46:58.118Z,1009.35
2019-02-19T00:47:39.318Z,1009.32
2019-02-19T00:48:20.522Z,1009.33
2019-02-19T00:49:01.953Z,1009.35
2019-02-19T00:49:43.283Z,1009.33
2019-02-19T00:50:26.147Z,1009.31
2019-02-19T00:51:07.595Z,1009.3
2019-02-19T00:51:48.939Z,1009.28
2019-02-19T00:52:30.380Z,1009.28
2019-02-19T00:53:11.655Z,1009.3
2019-02-19T00:53:53.889Z,1009.29
2019-02-19T00:54:35.363Z,1009.27
2019-02-19T00:55:16.837Z,1009.3
2019-02-19T00:55:58.128Z,1009.25
2019-02-19T00:56:39.542Z,1009.26
2019-02-19T00:57:20.966Z,1009.22
2019-02-19T00:58:02.290Z,1009.24
2019-02-19T00:58:43.659Z,1009.28
2019-02-19T00:59:25.710Z,1009.23
2019-02-19T01:00:06.950Z,1009.23
2019-02-19T01:00:48.245Z,1009.23
2019-02-19T01:01:29.767Z,1009.22
2019-02-19T01:02:11.152Z,1009.27
2019-02-19T01:02:52.569Z,1009.19
2019-02-19T01:03:33.852Z,1009.19
2019-02-19T01:04:15.180Z,1009.23
2019-02-19T01:04:56.461Z,1009.19
2019-02-19T01:05:37.807Z,1009.23
2019-02-19T01:06:19.206Z,1009.21
2019-02-19T01:07:00.662Z,1009.2
2019-02-19T01:07:41.846Z,1009.19
2019-02-19T01:08:23.153Z,1009.21
2019-02-19T01:09:04.530Z,1009.21
2019-02-19T01:09:45.888Z,1009.21
2019-02-19T01:10:27.332Z,1009.2
2019-02-19T01:11:08.691Z,1009.18
2019-02-19T01:11:50.030Z,1009.17
2019-02-19T01:12:31.295Z,1009.17
2019-02-19T01:13:12.633Z,1009.17
2019-02-19T01:13:54.580Z,1009.12
2019-02-19T01:14:36.731Z,1009.13
2019-02-19T01:15:25.204Z,1009.17
2019-02-19T01:15:59.184Z,1009.1
2019-02-19T01:16:40.602Z,1009.11
2019-02-19T01:17:22.653Z,1009.15
2019-02-19T01:18:04.703Z,1009.11
2019-02-19T01:18:46.120Z,1009.1
2019-02-19T01:19:27.489Z,1009.11
2019-02-19T01:20:08.788Z,1009.09
2019-02-19T01:20:50.137Z,1009.08
2019-02-19T01:21:31.498Z,1009.07
2019-02-19T01:22:12.919Z,1009.08
2019-02-19T01:22:54.391Z,1009.06
2019-02-19T01:23:35.763Z,1009.04
2019-02-19T01:24:17.134Z,1008.99
2019-02-19T01:24:58.594Z,1009
2019-02-19T01:25:40.915Z,1009.01
2019-02-19T01:26:22.165Z,1008.97
2019-02-19T01:27:03.403Z,1009
2019-02-19T01:27:46.699Z,1008.97
2019-02-19T01:28:28.123Z,1008.94
2019-02-19T01:29:09.462Z,1008.93
2019-02-19T01:29:51.589Z,1008.92
2019-02-19T01:30:33.739Z,1008.9
2019-02-19T01:31:15.681Z,1008.94
2019-02-19T01:31:57.018Z,1008.93
2019-02-19T01:32:38.284Z,1008.93
2019-02-19T01:33:19.622Z,1008.89
2019-02-19T01:34:01.794Z,1008.87
2019-02-19T01:34:43.027Z,1008.87
2019-02-19T01:35:24.382Z,1008.89
2019-02-19T01:36:07.528Z,1008.83
2019-02-19T01:36:48.909Z,1008.83
2019-02-19T01:37:30.235Z,1008.8
2019-02-19T01:38:11.368Z,1008.8
2019-02-19T01:38:52.676Z,1008.8
2019-02-19T01:39:34.037Z,1008.82
2019-02-19T01:40:15.264Z,1008.76
2019-02-19T01:40:57.402Z,1008.78
2019-02-19T01:41:38.848Z,1008.8
2019-02-19T01:42:20.239Z,1008.71
2019-02-19T01:43:01.444Z,1008.79
2019-02-19T01:43:42.782Z,1008.76
2019-02-19T01:44:24.064Z,1008.74
2019-02-19T01:45:06.736Z,1008.75
2019-02-19T01:45:47.903Z,1008.69
2019-02-19T01:46:29.384Z,1008.68
2019-02-19T01:47:10.625Z,1008.72
2019-02-19T01:47:52.064Z,1008.73
2019-02-19T01:48:33.363Z,1008.73
2019-02-19T01:49:14.820Z,1008.72
2019-02-19T01:49:57.098Z,1008.7
2019-02-19T01:50:38.409Z,1008.7
2019-02-19T01:51:19.704Z,1008.72
2019-02-19T01:52:00.890Z,1008.75
2019-02-19T01:52:44.025Z,1008.7
2019-02-19T01:53:25.222Z,1008.71
2019-02-19T01:54:07.318Z,1008.7
2019-02-19T01:54:48.750Z,1008.65
2019-02-19T01:55:30.058Z,1008.66
2019-02-19T01:56:11.540Z,1008.66
2019-02-19T01:56:52.875Z,1008.65
2019-02-19T01:57:34.209Z,1008.61
2019-02-19T01:58:16.350Z,1008.6
2019-02-19T01:58:57.774Z,1008.64
2019-02-19T01:59:40.935Z,1008.64
2019-02-19T02:00:22.450Z,1008.69
2019-02-19T02:01:04.634Z,1008.64
2019-02-19T02:01:46.494Z,1008.68
2019-02-19T02:02:27.861Z,1008.69
2019-02-19T02:03:09.240Z,1008.71
2019-02-19T02:03:51.550Z,1008.68
2019-02-19T02:04:33.028Z,1008.68
2019-02-19T02:05:14.372Z,1008.67
2019-02-19T02:05:55.760Z,1008.64
2019-02-19T02:06:37.192Z,1008.63
2019-02-19T02:07:18.635Z,1008.6
2019-02-19T02:08:00.200Z,1008.61
2019-02-19T02:08:42.527Z,1008.63
2019-02-19T02:09:24.433Z,1008.63
2019-02-19T02:10:05.769Z,1008.62
2019-02-19T02:10:47.223Z,1008.63
2019-02-19T02:11:28.713Z,1008.64
2019-02-19T02:12:10.056Z,1008.61
2019-02-19T02:12:52.389Z,1008.6
2019-02-19T02:13:33.590Z,1008.59
2019-02-19T02:14:16.412Z,1008.59
2019-02-19T02:14:59.478Z,1008.66
2019-02-19T02:15:42.590Z,1008.63
2019-02-19T02:16:22.225Z,1008.61
2019-02-19T02:17:03.608Z,1008.63
2019-02-19T02:17:45.051Z,1008.6
2019-02-19T02:18:27.714Z,1008.57
2019-02-19T02:19:08.979Z,1008.58
2019-02-19T02:19:50.377Z,1008.59
2019-02-19T02:20:31.688Z,1008.61
2019-02-19T02:21:13.854Z,1008.59
2019-02-19T02:21:55.270Z,1008.56
2019-02-19T02:22:36.620Z,1008.55
2019-02-19T02:23:17.971Z,1008.52
2019-02-19T02:23:59.804Z,1008.5
2019-02-19T02:24:41.310Z,1008.51
2019-02-19T02:25:23.206Z,1008.53
2019-02-19T02:26:04.677Z,1008.52
2019-02-19T02:26:46.156Z,1008.55
2019-02-19T02:27:28.431Z,1008.55
2019-02-19T02:28:11.392Z,1008.58
2019-02-19T02:28:52.913Z,1008.54
2019-02-19T02:29:35.301Z,1008.56
2019-02-19T02:30:16.786Z,1008.54
2019-02-19T02:30:58.238Z,1008.55
2019-02-19T02:31:39.722Z,1008.52
2019-02-19T02:32:21.176Z,1008.52
2019-02-19T02:33:03.419Z,1008.56
2019-02-19T02:33:44.803Z,1008.55
2019-02-19T02:34:28.237Z,1008.55
2019-02-19T02:35:11.319Z,1008.57
2019-02-19T02:35:51.968Z,1008.48
2019-02-19T02:36:33.368Z,1008.47
2019-02-19T02:37:15.716Z,1008.51
2019-02-19T02:37:57.154Z,1008.54
2019-02-19T02:38:38.545Z,1008.5
2019-02-19T02:39:19.948Z,1008.51
2019-02-19T02:40:01.308Z,1008.52
2019-02-19T02:40:42.598Z,1008.52
2019-02-19T02:41:24.810Z,1008.49
2019-02-19T02:42:06.243Z,1008.47
2019-02-19T02:42:47.797Z,1008.42
2019-02-19T02:43:29.261Z,1008.46
2019-02-19T02:44:11.724Z,1008.45
2019-02-19T02:44:53.056Z,1008.42
2019-02-19T02:45:34.539Z,1008.43
2019-02-19T02:46:15.997Z,1008.43
2019-02-19T02:46:57.983Z,1008.39
2019-02-19T02:47:41.023Z,1008.36
2019-02-19T02:48:23.348Z,1008.34
2019-02-19T02:49:04.657Z,1008.34
2019-02-19T02:49:46.858Z,1008.38
2019-02-19T02:50:28.225Z,1008.36
2019-02-19T02:51:09.580Z,1008.33
2019-02-19T02:51:51.003Z,1008.32
2019-02-19T02:52:32.395Z,1008.3
2019-02-19T02:53:13.802Z,1008.36
2019-02-19T02:53:55.809Z,1008.35
2019-02-19T02:54:37.144Z,1008.37
2019-02-19T02:55:18.568Z,1008.36
2019-02-19T02:56:00.016Z,1008.35
2019-02-19T02:56:41.463Z,1008.33
2019-02-19T02:57:22.906Z,1008.35
2019-02-19T02:58:04.234Z,1008.35
2019-02-19T02:58:45.591Z,1008.3
2019-02-19T02:59:26.865Z,1008.34
2019-02-19T03:00:09.935Z,1008.33
2019-02-19T03:00:51.819Z,1008.32
2019-02-19T03:01:33.119Z,1008.33
2019-02-19T03:02:14.360Z,1008.36
2019-02-19T03:02:56.238Z,1008.37
2019-02-19T03:03:37.667Z,1008.35
2019-02-19T03:04:19.062Z,1008.35
2019-02-19T03:05:00.442Z,1008.36
2019-02-19T03:05:42.806Z,1008.36
2019-02-19T03:06:24.117Z,1008.35
2019-02-19T03:07:05.497Z,1008.39
2019-02-19T03:07:46.969Z,1008.41
2019-02-19T03:08:28.243Z,1008.44
2019-02-19T03:09:09.725Z,1008.41
2019-02-19T03:09:51.090Z,1008.4
2019-02-19T03:10:32.475Z,1008.4
2019-02-19T03:11:13.805Z,1008.4
2019-02-19T03:11:55.045Z,1008.39
2019-02-19T03:12:36.425Z,1008.42
2019-02-19T03:13:17.702Z,1008.43
2019-02-19T03:13:59.912Z,1008.4
2019-02-19T03:14:41.346Z,1008.38
2019-02-19T03:15:22.634Z,1008.37
2019-02-19T03:16:03.995Z,1008.38
2019-02-19T03:16:45.958Z,1008.32
2019-02-19T03:17:27.276Z,1008.35
2019-02-19T03:18:08.534Z,1008.31
2019-02-19T03:18:49.902Z,1008.35
2019-02-19T03:19:31.094Z,1008.32
2019-02-19T03:20:13.901Z,1008.33
2019-02-19T03:20:56.280Z,1008.34
2019-02-19T03:21:38.446Z,1008.3
2019-02-19T03:22:19.892Z,1008.31
2019-02-19T03:23:01.209Z,1008.31
2019-02-19T03:23:42.679Z,1008.31
2019-02-19T03:24:26.039Z,1008.29
2019-02-19T03:25:07.433Z,1008.26
2019-02-19T03:25:48.814Z,1008.3
2019-02-19T03:26:30.104Z,1008.3
2019-02-19T03:27:11.638Z,1008.3
2019-02-19T03:27:53.111Z,1008.28
2019-02-19T03:28:34.576Z,1008.28
2019-02-19T03:29:15.932Z,1008.29
2019-02-19T03:29:57.280Z,1008.27
2019-02-19T03:30:39.231Z,1008.34
2019-02-19T03:31:20.628Z,1008.28
2019-02-19T03:32:01.987Z,1008.27
2019-02-19T03:32:43.339Z,1008.28
2019-02-19T03:33:24.591Z,1008.27
2019-02-19T03:34:06.124Z,1008.29
2019-02-19T03:34:47.356Z,1008.29
2019-02-19T03:35:29.353Z,1008.32
2019-02-19T03:36:10.689Z,1008.32
2019-02-19T03:36:52.127Z,1008.28
2019-02-19T03:37:33.368Z,1008.27
2019-02-19T03:38:14.594Z,1008.29
2019-02-19T03:38:55.792Z,1008.27
2019-02-19T03:39:37.635Z,1008.26
2019-02-19T03:40:18.913Z,1008.27
2019-02-19T03:41:00.284Z,1008.29
2019-02-19T03:41:41.700Z,1008.29
2019-02-19T03:42:22.931Z,1008.3
2019-02-19T03:43:04.410Z,1008.3
2019-02-19T03:43:47.716Z,1008.32
2019-02-19T03:44:29.214Z,1008.28
2019-02-19T03:45:10.440Z,1008.3
2019-02-19T03:45:51.790Z,1008.29
2019-02-19T03:46:33.790Z,1008.3
2019-02-19T03:47:15.101Z,1008.3
2019-02-19T03:47:56.401Z,1008.32
2019-02-19T03:48:37.514Z,1008.3
2019-02-19T03:49:18.978Z,1008.32
2019-02-19T03:50:00.403Z,1008.29
2019-02-19T03:50:41.577Z,1008.33
2019-02-19T03:51:22.798Z,1008.32
2019-02-19T03:52:04.674Z,1008.31
2019-02-19T03:52:46.699Z,1008.34
2019-02-19T03:53:27.959Z,1008.38
2019-02-19T03:54:10.142Z,1008.37
2019-02-19T03:54:51.430Z,1008.36
2019-02-19T03:55:32.526Z,1008.37
2019-02-19T03:56:14.244Z,1008.38
2019-02-19T03:56:55.561Z,1008.36
2019-02-19T03:57:37.622Z,1008.4
2019-02-19T03:58:18.651Z,1008.35
2019-02-19T03:59:00.037Z,1008.36
2019-02-19T03:59:41.488Z,1008.36
2019-02-19T04:00:22.846Z,1008.4
2019-02-19T04:01:04.697Z,1008.38
2019-02-19T04:01:46.939Z,1008.33
2019-02-19T04:02:28.346Z,1008.31
2019-02-19T04:03:09.649Z,1008.37
2019-02-19T04:03:50.821Z,1008.34
2019-02-19T04:04:32.612Z,1008.38
2019-02-19T04:05:13.943Z,1008.37
2019-02-19T04:05:55.319Z,1008.35
2019-02-19T04:06:36.586Z,1008.41
2019-02-19T04:07:19.417Z,1008.35
2019-02-19T04:08:00.773Z,1008.36
2019-02-19T04:08:42.979Z,1008.37
2019-02-19T04:09:24.172Z,1008.38
2019-02-19T04:10:07.386Z,1008.35
2019-02-19T04:10:48.311Z,1008.4
2019-02-19T04:11:30.613Z,1008.33
2019-02-19T04:12:11.989Z,1008.37
2019-02-19T04:12:53.167Z,1008.41
2019-02-19T04:13:34.507Z,1008.42
2019-02-19T04:14:15.828Z,1008.4
2019-02-19T04:14:57.150Z,1008.4
2019-02-19T04:15:38.541Z,1008.38
2019-02-19T04:16:21.399Z,1008.39
2019-02-19T04:17:01.115Z,1008.38
2019-02-19T04:17:42.310Z,1008.36
2019-02-19T04:18:24.384Z,1008.37
2019-02-19T04:19:05.597Z,1008.36
2019-02-19T04:19:46.869Z,1008.37
2019-02-19T04:20:28.113Z,1008.36
2019-02-19T04:21:10.090Z,1008.36
2019-02-19T04:21:51.535Z,1008.32
2019-02-19T04:22:32.769Z,1008.32
2019-02-19T04:23:14.820Z,1008.36
2019-02-19T04:23:56.208Z,1008.37
2019-02-19T04:24:37.357Z,1008.38
2019-02-19T04:25:18.613Z,1008.4
2019-02-19T04:26:00.046Z,1008.36
2019-02-19T04:26:42.655Z,1008.36
2019-02-19T04:27:24.017Z,1008.38
2019-02-19T04:28:05.439Z,1008.34
2019-02-19T04:28:46.742Z,1008.36
2019-02-19T04:29:28.055Z,1008.38
2019-02-19T04:30:09.496Z,1008.34
2019-02-19T04:30:50.858Z,1008.39
2019-02-19T04:31:32.256Z,1008.4
2019-02-19T04:32:14.446Z,1008.4
2019-02-19T04:32:56.718Z,1008.35
2019-02-19T04:33:37.946Z,1008.32
2019-02-19T04:34:19.245Z,1008.35
2019-02-19T04:35:00.723Z,1008.3
2019-02-19T04:35:41.990Z,1008.31
2019-02-19T04:36:23.455Z,1008.29
2019-02-19T04:37:04.984Z,1008.27
2019-02-19T04:37:47.122Z,1008.32
2019-02-19T04:38:29.317Z,1008.3
2019-02-19T04:39:11.281Z,1008.28
2019-02-19T04:39:52.708Z,1008.3
2019-02-19T04:40:34.020Z,1008.27
2019-02-19T04:41:15.362Z,1008.28
2019-02-19T04:41:56.828Z,1008.28
2019-02-19T04:42:39.731Z,1008.32
2019-02-19T04:43:21.184Z,1008.28
2019-02-19T04:44:03.552Z,1008.28
2019-02-19T04:44:44.960Z,1008.3
2019-02-19T04:45:26.361Z,1008.27
2019-02-19T04:46:07.909Z,1008.3
2019-02-19T04:46:49.394Z,1008.31
2019-02-19T04:47:30.874Z,1008.34
2019-02-19T04:48:12.337Z,1008.28
2019-02-19T04:48:53.812Z,1008.3
2019-02-19T04:49:35.128Z,1008.31
2019-02-19T04:50:16.659Z,1008.29
2019-02-19T04:50:58.080Z,1008.28
2019-02-19T04:51:39.482Z,1008.27
2019-02-19T04:52:20.911Z,1008.28
2019-02-19T04:53:02.377Z,1008.23
2019-02-19T04:53:45.516Z,1008.23
2019-02-19T04:54:26.758Z,1008.25
2019-02-19T04:55:08.242Z,1008.26
2019-02-19T04:55:50.382Z,1008.23
2019-02-19T04:56:31.776Z,1008.24
2019-02-19T04:57:13.236Z,1008.27
2019-02-19T04:57:54.752Z,1008.21
2019-02-19T04:58:37.931Z,1008.23
2019-02-19T04:59:20.296Z,1008.25
2019-02-19T05:00:02.506Z,1008.23
2019-02-19T05:00:43.908Z,1008.23
2019-02-19T05:01:25.323Z,1008.23
2019-02-19T05:02:06.736Z,1008.21
2019-02-19T05:02:48.180Z,1008.24
2019-02-19T05:03:29.468Z,1008.24
2019-02-19T05:04:10.779Z,1008.29
2019-02-19T05:04:52.205Z,1008.27
2019-02-19T05:05:33.537Z,1008.25
2019-02-19T05:06:15.088Z,1008.25
2019-02-19T05:06:56.348Z,1008.23
2019-02-19T05:07:37.691Z,1008.25
2019-02-19T05:08:18.969Z,1008.26
2019-02-19T05:09:00.323Z,1008.3
2019-02-19T05:09:42.189Z,1008.28
2019-02-19T05:10:23.581Z,1008.3
2019-02-19T05:11:05.142Z,1008.31
2019-02-19T05:11:46.326Z,1008.32
2019-02-19T05:12:27.717Z,1008.34
2019-02-19T05:13:09.066Z,1008.31
2019-02-19T05:13:50.524Z,1008.29
2019-02-19T05:14:31.816Z,1008.28
2019-02-19T05:15:14.045Z,1008.26
2019-02-19T05:15:55.401Z,1008.22
2019-02-19T05:16:40.609Z,1008.27
2019-02-19T05:17:19.943Z,1008.29
2019-02-19T05:18:01.340Z,1008.29
2019-02-19T05:18:42.759Z,1008.31
2019-02-19T05:19:24.693Z,1008.32
2019-02-19T05:20:06.101Z,1008.32
2019-02-19T05:20:47.496Z,1008.3
2019-02-19T05:21:29.402Z,1008.31
2019-02-19T05:22:10.857Z,1008.29
2019-02-19T05:22:52.154Z,1008.29
2019-02-19T05:23:33.435Z,1008.28
2019-02-19T05:24:14.933Z,1008.32
2019-02-19T05:24:57.346Z,1008.3
2019-02-19T05:25:38.743Z,1008.29
2019-02-19T05:26:20.110Z,1008.3
2019-02-19T05:27:01.508Z,1008.3
2019-02-19T05:27:42.705Z,1008.33
2019-02-19T05:28:24.169Z,1008.26
2019-02-19T05:29:05.910Z,1008.29
2019-02-19T05:29:47.220Z,1008.25
2019-02-19T05:30:28.693Z,1008.31
2019-02-19T05:31:09.966Z,1008.28
2019-02-19T05:31:51.347Z,1008.36
2019-02-19T05:32:34.213Z,1008.31
2019-02-19T05:33:15.535Z,1008.32
2019-02-19T05:33:56.822Z,1008.33
2019-02-19T05:34:38.925Z,1008.33
2019-02-19T05:35:20.111Z,1008.31
2019-02-19T05:36:01.507Z,1008.28
2019-02-19T05:36:43.684Z,1008.29
2019-02-19T05:37:25.047Z,1008.3
2019-02-19T05:38:06.357Z,1008.29
2019-02-19T05:38:48.733Z,1008.3
2019-02-19T05:39:30.064Z,1008.31
2019-02-19T05:40:11.288Z,1008.31
2019-02-19T05:40:52.697Z,1008.28
2019-02-19T05:41:34.049Z,1008.3
2019-02-19T05:42:15.490Z,1008.34
2019-02-19T05:42:56.780Z,1008.3
2019-02-19T05:43:38.112Z,1008.33
2019-02-19T05:44:19.405Z,1008.35
2019-02-19T05:45:00.754Z,1008.33
2019-02-19T05:45:42.060Z,1008.32
2019-02-19T05:46:23.555Z,1008.33
2019-02-19T05:47:04.845Z,1008.33
2019-02-19T05:47:46.104Z,1008.33
2019-02-19T05:48:27.349Z,1008.36
2019-02-19T05:49:08.635Z,1008.35
2019-02-19T05:49:50.023Z,1008.38
2019-02-19T05:50:31.245Z,1008.33
2019-02-19T05:51:12.454Z,1008.36
2019-02-19T05:51:53.819Z,1008.32
2019-02-19T05:52:35.971Z,1008.31
2019-02-19T05:53:17.289Z,1008.3
2019-02-19T05:53:58.584Z,1008.34
2019-02-19T05:54:39.957Z,1008.36
2019-02-19T05:55:21.011Z,1008.34
2019-02-19T05:56:02.182Z,1008.35
2019-02-19T05:56:44.515Z,1008.29
2019-02-19T05:57:26.026Z,1008.31
2019-02-19T05:58:08.289Z,1008.31
2019-02-19T05:58:49.704Z,1008.33
2019-02-19T05:59:32.607Z,1008.34
2019-02-19T06:00:13.569Z,1008.36
2019-02-19T06:00:55.350Z,1008.38
2019-02-19T06:01:37.550Z,1008.41
2019-02-19T06:02:19.012Z,1008.42
2019-02-19T06:03:00.308Z,1008.41
2019-02-19T06:03:41.421Z,1008.42
2019-02-19T06:04:23.377Z,1008.39
2019-02-19T06:05:05.777Z,1008.36
2019-02-19T06:05:45.845Z,1008.38
2019-02-19T06:06:27.952Z,1008.38
2019-02-19T06:07:09.842Z,1008.42
2019-02-19T06:07:51.031Z,1008.41
2019-02-19T06:08:32.391Z,1008.41
2019-02-19T06:09:13.627Z,1008.42
2019-02-19T06:09:54.814Z,1008.47
2019-02-19T06:10:36.052Z,1008.48
2019-02-19T06:11:17.220Z,1008.47
2019-02-19T06:11:58.857Z,1008.49
2019-02-19T06:12:40.257Z,1008.44
2019-02-19T06:13:21.929Z,1008.48
2019-02-19T06:14:03.156Z,1008.51
2019-02-19T06:14:44.940Z,1008.5
2019-02-19T06:15:26.171Z,1008.48
2019-02-19T06:16:07.491Z,1008.52
2019-02-19T06:16:48.795Z,1008.48
2019-02-19T06:17:30.289Z,1008.54
2019-02-19T06:18:12.395Z,1008.54
2019-02-19T06:18:53.849Z,1008.51
2019-02-19T06:19:35.217Z,1008.54
2019-02-19T06:20:16.453Z,1008.55
2019-02-19T06:20:57.696Z,1008.54
2019-02-19T06:21:39.058Z,1008.54
2019-02-19T06:22:20.922Z,1008.57
2019-02-19T06:23:02.318Z,1008.51
2019-02-19T06:23:43.681Z,1008.52
2019-02-19T06:24:24.972Z,1008.54
2019-02-19T06:25:07.216Z,1008.53
2019-02-19T06:25:48.553Z,1008.54
2019-02-19T06:26:29.783Z,1008.55
2019-02-19T06:27:11.256Z,1008.54
2019-02-19T06:27:52.539Z,1008.6
2019-02-19T06:28:33.828Z,1008.54
2019-02-19T06:29:15.103Z,1008.55
2019-02-19T06:29:57.192Z,1008.58
2019-02-19T06:30:38.659Z,1008.57
2019-02-19T06:31:19.858Z,1008.57
2019-02-19T06:32:01.231Z,1008.6
2019-02-19T06:32:43.419Z,1008.59
2019-02-19T06:33:24.788Z,1008.63
2019-02-19T06:34:08.421Z,1008.63
2019-02-19T06:34:50.516Z,1008.64
2019-02-19T06:35:33.831Z,1008.59
2019-02-19T06:36:15.841Z,1008.59
2019-02-19T06:36:58.174Z,1008.6
2019-02-19T06:37:40.280Z,1008.6
2019-02-19T06:38:21.768Z,1008.62
2019-02-19T06:39:03.003Z,1008.65
2019-02-19T06:39:46.398Z,1008.66
2019-02-19T06:40:27.740Z,1008.67
2019-02-19T06:41:09.553Z,1008.67
2019-02-19T06:41:51.731Z,1008.69
2019-02-19T06:42:32.969Z,1008.71
2019-02-19T06:43:15.107Z,1008.73
2019-02-19T06:43:56.554Z,1008.75
2019-02-19T06:44:37.930Z,1008.75
2019-02-19T06:45:19.219Z,1008.77
2019-02-19T06:46:00.677Z,1008.77
2019-02-19T06:46:42.912Z,1008.79
2019-02-19T06:47:24.252Z,1008.81
2019-02-19T06:48:05.531Z,1008.81
2019-02-19T06:48:46.862Z,1008.81
2019-02-19T06:49:29.121Z,1008.83
2019-02-19T06:50:10.503Z,1008.86
2019-02-19T06:50:52.594Z,1008.83
2019-02-19T06:51:34.435Z,1008.84
2019-02-19T06:52:15.711Z,1008.89
2019-02-19T06:52:57.087Z,1008.88
2019-02-19T06:53:38.277Z,1008.86
2019-02-19T06:54:19.074Z,1008.88
2019-02-19T06:55:00.287Z,1008.87
2019-02-19T06:55:41.817Z,1008.89
2019-02-19T06:56:23.138Z,1008.91
2019-02-19T06:57:04.422Z,1008.9
2019-02-19T06:57:45.410Z,1008.93
2019-02-19T06:58:26.322Z,1008.93
2019-02-19T06:59:07.437Z,1008.91
2019-02-19T06:59:48.455Z,1008.93
2019-02-19T07:00:30.698Z,1008.97
2019-02-19T07:01:11.829Z,1008.98
2019-02-19T07:01:53.003Z,1008.98
2019-02-19T07:02:34.784Z,1008.98
2019-02-19T07:03:16.412Z,1009.02
2019-02-19T07:03:57.514Z,1009.02
2019-02-19T07:04:38.554Z,1009.01
2019-02-19T07:05:20.779Z,1008.98
2019-02-19T07:06:01.995Z,1009
2019-02-19T07:06:43.073Z,1008.91
2019-02-19T07:07:24.220Z,1008.99
2019-02-19T07:08:05.321Z,1008.98
2019-02-19T07:08:46.448Z,1009.05
2019-02-19T07:09:27.544Z,1009
2019-02-19T07:10:09.359Z,1008.97
2019-02-19T07:10:51.293Z,1009
2019-02-19T07:11:32.729Z,1009.01
2019-02-19T07:12:14.176Z,1009.02
2019-02-19T07:12:55.461Z,1008.99
2019-02-19T07:13:37.771Z,1008.94
2019-02-19T07:14:20.886Z,1008.99
2019-02-19T07:15:02.066Z,1009.05
2019-02-19T07:15:43.489Z,1009.07
2019-02-19T07:16:24.930Z,1009.05
2019-02-19T07:17:06.251Z,1009.06
2019-02-19T07:17:47.588Z,1009.06
2019-02-19T07:18:28.891Z,1009.04
2019-02-19T07:19:10.143Z,1009.1
2019-02-19T07:19:52.375Z,1009.09
2019-02-19T07:20:34.871Z,1009.03
2019-02-19T07:21:16.267Z,1009.12
2019-02-19T07:21:57.632Z,1009.07
2019-02-19T07:22:38.951Z,1009.09
2019-02-19T07:23:20.779Z,1009.07
2019-02-19T07:24:04.318Z,1009.06
2019-02-19T07:24:44.343Z,1009.11
2019-02-19T07:25:26.732Z,1009.08
2019-02-19T07:26:08.437Z,1009.14
2019-02-19T07:26:49.801Z,1009.11
2019-02-19T07:27:31.164Z,1009.09
2019-02-19T07:28:12.752Z,1009.11
2019-02-19T07:28:54.376Z,1009.07
2019-02-19T07:29:35.732Z,1009.08
2019-02-19T07:30:17.131Z,1009.02
2019-02-19T07:30:58.387Z,1009.08
2019-02-19T07:31:39.694Z,1009.03
2019-02-19T07:32:21.515Z,1009.05
2019-02-19T07:33:02.934Z,1009.03
2019-02-19T07:33:44.012Z,1009.01
2019-02-19T07:34:25.584Z,1009.06
2019-02-19T07:35:06.449Z,1009.07
2019-02-19T07:35:47.408Z,1009.05
2019-02-19T07:36:28.802Z,1009.06
2019-02-19T07:37:09.893Z,1009.05
2019-02-19T07:37:51.160Z,1009.07
2019-02-19T07:38:33.625Z,1009.05
2019-02-19T07:39:13.451Z,1009.05
2019-02-19T07:39:54.784Z,1009.09
2019-02-19T07:40:35.955Z,1009.07
2019-02-19T07:41:17.083Z,1009.1
2019-02-19T07:41:58.362Z,1009.1
2019-02-19T07:42:39.401Z,1009.13
2019-02-19T07:43:20.347Z,1009.07
2019-02-19T07:44:01.415Z,1009.07
2019-02-19T07:44:42.544Z,1009.08
2019-02-19T07:45:23.848Z,1009.13
2019-02-19T07:46:04.942Z,1009.11
2019-02-19T07:46:46.057Z,1009.12
2019-02-19T07:47:27.308Z,1009.17
2019-02-19T07:48:08.500Z,1009.15
2019-02-19T07:48:49.476Z,1009.22
2019-02-19T07:49:31.384Z,1009.23
2019-02-19T07:50:13.464Z,1009.21
2019-02-19T07:50:54.521Z,1009.16
2019-02-19T07:51:36.520Z,1009.25
2019-02-19T07:52:18.538Z,1009.22
2019-02-19T07:53:00.899Z,1009.22
2019-02-19T07:53:42.803Z,1009.21
2019-02-19T07:54:24.035Z,1009.23
2019-02-19T07:55:05.783Z,1009.3
2019-02-19T07:55:47.729Z,1009.27
2019-02-19T07:56:28.897Z,1009.19
2019-02-19T07:57:10.342Z,1009.25
2019-02-19T07:57:51.703Z,1009.21
2019-02-19T07:58:33.010Z,1009.23
2019-02-19T07:59:14.209Z,1009.19
2019-02-19T07:59:56.836Z,1009.24
2019-02-19T08:00:39.439Z,1009.25
2019-02-19T08:01:20.822Z,1009.27
2019-02-19T08:02:02.955Z,1009.3
2019-02-19T08:02:45.084Z,1009.32
2019-02-19T08:03:26.327Z,1009.31
2019-02-19T08:04:07.713Z,1009.3
2019-02-19T08:04:48.906Z,1009.33
2019-02-19T08:05:30.476Z,1009.34
2019-02-19T08:06:11.663Z,1009.29
2019-02-19T08:06:52.905Z,1009.33
2019-02-19T08:07:33.930Z,1009.32
2019-02-19T08:08:15.205Z,1009.31
2019-02-19T08:08:57.432Z,1009.33
2019-02-19T08:09:38.534Z,1009.29
2019-02-19T08:10:19.744Z,1009.31
2019-02-19T08:11:00.928Z,1009.27
2019-02-19T08:11:41.945Z,1009.27
2019-02-19T08:12:22.794Z,1009.32
2019-02-19T08:13:04.087Z,1009.28
2019-02-19T08:13:46.339Z,1009.3
2019-02-19T08:14:28.600Z,1009.31
2019-02-19T08:15:08.633Z,1009.33
2019-02-19T08:15:49.851Z,1009.34
2019-02-19T08:16:30.832Z,1009.34
2019-02-19T08:17:12.043Z,1009.37
2019-02-19T08:17:53.197Z,1009.33
2019-02-19T08:18:34.370Z,1009.37
2019-02-19T08:19:15.398Z,1009.33
2019-02-19T08:19:56.436Z,1009.36
2019-02-19T08:20:37.916Z,1009.36
2019-02-19T08:21:19.042Z,1009.39
2019-02-19T08:22:01.333Z,1009.37
2019-02-19T08:22:42.439Z,1009.42
2019-02-19T08:23:23.445Z,1009.45
2019-02-19T08:24:04.608Z,1009.44
2019-02-19T08:24:45.943Z,1009.45
2019-02-19T08:25:27.250Z,1009.46
2019-02-19T08:26:08.841Z,1009.48
2019-02-19T08:26:49.936Z,1009.46
2019-02-19T08:27:31.184Z,1009.45
2019-02-19T08:28:13.039Z,1009.46
2019-02-19T08:29:02.867Z,1009.47
2019-02-19T08:29:35.570Z,1009.47
2019-02-19T08:30:16.631Z,1009.49
2019-02-19T08:30:57.816Z,1009.53
2019-02-19T08:31:39.038Z,1009.52
2019-02-19T08:32:20.151Z,1009.46
2019-02-19T08:33:01.268Z,1009.53
2019-02-19T08:33:42.256Z,1009.52
2019-02-19T08:34:23.483Z,1009.49
2019-02-19T08:35:04.497Z,1009.53
2019-02-19T08:35:45.702Z,1009.54
2019-02-19T08:36:26.722Z,1009.52
2019-02-19T08:37:07.688Z,1009.55
2019-02-19T08:37:49.205Z,1009.5
2019-02-19T08:38:30.434Z,1009.52
2019-02-19T08:39:12.699Z,1009.57
2019-02-19T08:39:52.905Z,1009.57
2019-02-19T08:40:34.206Z,1009.59
2019-02-19T08:41:15.177Z,1009.51
2019-02-19T08:41:56.478Z,1009.58
2019-02-19T08:42:37.548Z,1009.6
2019-02-19T08:43:18.804Z,1009.55
2019-02-19T08:44:00.983Z,1009.6
2019-02-19T08:44:41.848Z,1009.58
2019-02-19T08:45:22.805Z,1009.57
2019-02-19T08:46:04.008Z,1009.62
2019-02-19T08:46:45.224Z,1009.62
2019-02-19T08:47:26.527Z,1009.57
2019-02-19T08:48:07.667Z,1009.62
2019-02-19T08:48:48.653Z,1009.61
2019-02-19T08:49:30.026Z,1009.61
2019-02-19T08:50:11.054Z,1009.62
2019-02-19T08:50:52.868Z,1009.57
2019-02-19T08:51:34.078Z,1009.59
2019-02-19T08:52:15.176Z,1009.62
2019-02-19T08:52:56.910Z,1009.64
2019-02-19T08:53:37.996Z,1009.63